Archbald, Pennsylvania
Current Conditions -  °F | °C
As of 12:54 AM on Sunday 21 Dec 2014 (Local Time) from KAVP Reporting Station
Overcast Overcast  
Wind Chill: 25°   Ceiling: 2200
Heat Index: 30°   Visibility: 10mi
Dew Point: 19°   Wind: 5mph
Humidity: 64%   Direction: 350°N
Pressure: 30.23"   Gusts: NA
Location:  41.51°N, 75.56°W
Report Text: KAVP 210554Z AUTO 35004KT 10SM OVC022 M01/M07 A3023 RMK AO2 SLP246 T10111072 11011 21011 50001
Loading
Personal Weather Stations






























Interactive Weather Map New forecast layout! Learn more

10-Day Weather Forecast

Advertisements
Track Severe Weather on mobile